sensor_id;sensor_type;location;lat;lon;timestamp;pressure;altitude;pressure_sealevel;temperature
23992;BMP280;12205;50.600;4.608;2022-08-23T00:02:08;100142.06;;;19.37
23992;BMP280;12205;50.600;4.608;2022-08-23T00:04:39;100131.28;;;19.34
23992;BMP280;12205;50.600;4.608;2022-08-23T00:07:10;100130.59;;;19.30
23992;BMP280;12205;50.600;4.608;2022-08-23T00:09:37;100136.03;;;19.30
23992;BMP280;12205;50.600;4.608;2022-08-23T00:12:12;100136.06;;;19.26
23992;BMP280;12205;50.600;4.608;2022-08-23T00:14:45;100133.06;;;19.24
23992;BMP280;12205;50.600;4.608;2022-08-23T00:17:14;100108.69;;;19.04
23992;BMP280;12205;50.600;4.608;2022-08-23T00:19:42;100140.13;;;19.18
23992;BMP280;12205;50.600;4.608;2022-08-23T00:22:10;100143.25;;;19.16
23992;BMP280;12205;50.600;4.608;2022-08-23T00:24:38;100135.56;;;19.15
23992;BMP280;12205;50.600;4.608;2022-08-23T00:27:10;100129.53;;;19.07
23992;BMP280;12205;50.600;4.608;2022-08-23T00:29:41;100129.88;;;19.09
23992;BMP280;12205;50.600;4.608;2022-08-23T00:32:12;100123.41;;;19.03
23992;BMP280;12205;50.600;4.608;2022-08-23T00:34:40;100126.47;;;19.05
23992;BMP280;12205;50.600;4.608;2022-08-23T00:37:08;100124.94;;;19.04
23992;BMP280;12205;50.600;4.608;2022-08-23T00:39:38;100126.13;;;19.03
23992;BMP280;12205;50.600;4.608;2022-08-23T00:42:11;100124.25;;;19.00
23992;BMP280;12205;50.600;4.608;2022-08-23T00:44:54;100111.97;;;18.95
23992;BMP280;12205;50.600;4.608;2022-08-23T00:47:40;100115.84;;;18.94
23992;BMP280;12205;50.600;4.608;2022-08-23T00:50:22;100106.28;;;18.90
23992;BMP280;12205;50.600;4.608;2022-08-23T00:53:02;100112.84;;;18.89
23992;BMP280;12205;50.600;4.608;2022-08-23T00:55:32;100115.56;;;18.89
23992;BMP280;12205;50.600;4.608;2022-08-23T00:58:00;100125.72;;;18.84
23992;BMP280;12205;50.600;4.608;2022-08-23T01:00:28;100119.97;;;18.82
23992;BMP280;12205;50.600;4.608;2022-08-23T01:02:56;100117.75;;;18.77
23992;BMP280;12205;50.600;4.608;2022-08-23T01:05:32;100113.97;;;18.71
23992;BMP280;12205;50.600;4.608;2022-08-23T01:08:02;100124.75;;;18.75
23992;BMP280;12205;50.600;4.608;2022-08-23T01:10:35;100123.97;;;18.74
23992;BMP280;12205;50.600;4.608;2022-08-23T01:13:08;100123.28;;;18.70
23992;BMP280;12205;50.600;4.608;2022-08-23T01:15:44;100121.78;;;18.69
23992;BMP280;12205;50.600;4.608;2022-08-23T01:18:17;100122.94;;;18.68
23992;BMP280;12205;50.600;4.608;2022-08-23T01:20:53;100128.00;;;18.66
23992;BMP280;12205;50.600;4.608;2022-08-23T01:23:28;100123.41;;;18.63
23992;BMP280;12205;50.600;4.608;2022-08-23T01:25:58;100120.72;;;18.63
23992;BMP280;12205;50.600;4.608;2022-08-23T01:28:25;100131.19;;;18.61
23992;BMP280;12205;50.600;4.608;2022-08-23T01:30:52;100121.28;;;18.54
23992;BMP280;12205;50.600;4.608;2022-08-23T01:33:21;100122.78;;;18.55
23992;BMP280;12205;50.600;4.608;2022-08-23T01:35:53;100127.44;;;18.55
23992;BMP280;12205;50.600;4.608;2022-08-23T01:38:23;100125.94;;;18.54
23992;BMP280;12205;50.600;4.608;2022-08-23T01:40:52;100132.91;;;18.51
23992;BMP280;12205;50.600;4.608;2022-08-23T01:43:20;100125.25;;;18.50
23992;BMP280;12205;50.600;4.608;2022-08-23T01:45:52;100132.13;;;18.51
23992;BMP280;12205;50.600;4.608;2022-08-23T01:48:22;100122.84;;;18.52
23992;BMP280;12205;50.600;4.608;2022-08-23T01:50:50;100126.34;;;18.52
23992;BMP280;12205;50.600;4.608;2022-08-23T01:53:17;100125.94;;;18.54
23992;BMP280;12205;50.600;4.608;2022-08-23T01:55:48;100130.66;;;18.50
23992;BMP280;12205;50.600;4.608;2022-08-23T01:58:19;100138.00;;;18.49
23992;BMP280;12205;50.600;4.608;2022-08-23T02:00:46;100132.97;;;18.47
23992;BMP280;12205;50.600;4.608;2022-08-23T02:03:13;100136.84;;;18.46
23992;BMP280;12205;50.600;4.608;2022-08-23T02:05:42;100125.28;;;18.46
23992;BMP280;12205;50.600;4.608;2022-08-23T02:08:11;100130.66;;;18.50
23992;BMP280;12205;50.600;4.608;2022-08-23T02:10:58;100131.44;;;18.46
23992;BMP280;12205;50.600;4.608;2022-08-23T02:13:27;100117.53;;;18.48
23992;BMP280;12205;50.600;4.608;2022-08-23T02:15:55;100126.03;;;18.46
23992;BMP280;12205;50.600;4.608;2022-08-23T02:18:23;100131.13;;;18.44
23992;BMP280;12205;50.600;4.608;2022-08-23T02:20:51;100129.97;;;18.42
23992;BMP280;12205;50.600;4.608;2022-08-23T02:23:20;100130.06;;;18.38
23992;BMP280;12205;50.600;4.608;2022-08-23T02:25:48;100125.41;;;18.39
23992;BMP280;12205;50.600;4.608;2022-08-23T02:28:17;100127.00;;;18.36
23992;BMP280;12205;50.600;4.608;2022-08-23T02:30:46;100128.59;;;18.34
23992;BMP280;12205;50.600;4.608;2022-08-23T02:33:15;100130.16;;;18.31
23992;BMP280;12205;50.600;4.608;2022-08-23T02:35:43;100122.56;;;18.26
23992;BMP280;12205;50.600;4.608;2022-08-23T02:38:11;100126.44;;;18.25
23992;BMP280;12205;50.600;4.608;2022-08-23T02:40:39;100129.56;;;18.23
23992;BMP280;12205;50.600;4.608;2022-08-23T02:43:07;100116.44;;;18.22
23992;BMP280;12205;50.600;4.608;2022-08-23T02:45:36;100121.13;;;18.18
23992;BMP280;12205;50.600;4.608;2022-08-23T02:48:06;100118.91;;;18.13
23992;BMP280;12205;50.600;4.608;2022-08-23T02:50:43;100116.53;;;18.15
23992;BMP280;12205;50.600;4.608;2022-08-23T02:53:11;100125.84;;;18.14
23992;BMP280;12205;50.600;4.608;2022-08-23T02:55:38;100120.44;;;18.14
23992;BMP280;12205;50.600;4.608;2022-08-23T02:58:05;100121.25;;;18.11
23992;BMP280;12205;50.600;4.608;2022-08-23T03:00:33;100125.16;;;18.10
23992;BMP280;12205;50.600;4.608;2022-08-23T03:03:01;100129.06;;;18.05
23992;BMP280;12205;50.600;4.608;2022-08-23T03:05:31;100128.78;;;17.99
23992;BMP280;12205;50.600;4.608;2022-08-23T03:07:59;100129.94;;;17.98
23992;BMP280;12205;50.600;4.608;2022-08-23T03:10:27;100136.13;;;17.99
23992;BMP280;12205;50.600;4.608;2022-08-23T03:12:58;100144.59;;;18.01
23992;BMP280;12205;50.600;4.608;2022-08-23T03:15:26;100136.88;;;17.99
23992;BMP280;12205;50.600;4.608;2022-08-23T03:17:53;100139.59;;;17.99
23992;BMP280;12205;50.600;4.608;2022-08-23T03:20:20;100129.22;;;17.94
23992;BMP280;12205;50.600;4.608;2022-08-23T03:22:52;100143.53;;;17.95
23992;BMP280;12205;50.600;4.608;2022-08-23T03:25:19;100137.34;;;17.94
23992;BMP280;12205;50.600;4.608;2022-08-23T03:28:06;100135.88;;;17.90
23992;BMP280;12205;50.600;4.608;2022-08-23T03:30:35;100142.44;;;17.88
23992;BMP280;12205;50.600;4.608;2022-08-23T03:33:04;100148.66;;;17.89
23992;BMP280;12205;50.600;4.608;2022-08-23T03:35:31;100142.88;;;17.87
23992;BMP280;12205;50.600;4.608;2022-08-23T03:38:01;100145.94;;;17.89
23992;BMP280;12205;50.600;4.608;2022-08-23T03:40:28;100151.00;;;17.87
23992;BMP280;12205;50.600;4.608;2022-08-23T03:42:55;100158.34;;;17.86
23992;BMP280;12205;50.600;4.608;2022-08-23T03:45:24;100156.41;;;17.87
23992;BMP280;12205;50.600;4.608;2022-08-23T03:47:52;100154.47;;;17.87
23992;BMP280;12205;50.600;4.608;2022-08-23T03:50:19;100159.47;;;17.89
23992;BMP280;12205;50.600;4.608;2022-08-23T03:52:47;100167.94;;;17.91
23992;BMP280;12205;50.600;4.608;2022-08-23T03:55:16;100161.81;;;17.87
23992;BMP280;12205;50.600;4.608;2022-08-23T03:57:47;100160.09;;;17.97
23992;BMP280;12205;50.600;4.608;2022-08-23T04:00:16;100160.09;;;17.97
23992;BMP280;12205;50.600;4.608;2022-08-23T04:02:45;100157.13;;;17.91
23992;BMP280;12205;50.600;4.608;2022-08-23T04:05:13;100163.53;;;18.01
23992;BMP280;12205;50.600;4.608;2022-08-23T04:07:56;100177.00;;;18.04
23992;BMP280;12205;50.600;4.608;2022-08-23T04:10:25;100177.00;;;18.04
23992;BMP280;12205;50.600;4.608;2022-08-23T04:12:54;100171.59;;;18.04
23992;BMP280;12205;50.600;4.608;2022-08-23T04:15:23;100177.00;;;18.04
23992;BMP280;12205;50.600;4.608;2022-08-23T04:17:51;100175.47;;;18.03
23992;BMP280;12205;50.600;4.608;2022-08-23T04:20:18;100169.28;;;18.03
23992;BMP280;12205;50.600;4.608;2022-08-23T04:23:12;100181.72;;;18.00
23992;BMP280;12205;50.600;4.608;2022-08-23T04:25:49;100176.28;;;18.00
23992;BMP280;12205;50.600;4.608;2022-08-23T04:28:17;100180.16;;;17.99
23992;BMP280;12205;50.600;4.608;2022-08-23T04:30:44;100170.91;;;17.97
23992;BMP280;12205;50.600;4.608;2022-08-23T04:33:11;100179.47;;;17.95
23992;BMP280;12205;50.600;4.608;2022-08-23T04:35:40;100173.69;;;17.93
23992;BMP280;12205;50.600;4.608;2022-08-23T04:38:09;100181.44;;;17.91
23992;BMP280;12205;50.600;4.608;2022-08-23T04:40:36;100180.75;;;17.87
23992;BMP280;12205;50.600;4.608;2022-08-23T04:43:22;100176.16;;;17.84
23992;BMP280;12205;50.600;4.608;2022-08-23T04:45:50;100186.59;;;17.82
23992;BMP280;12205;50.600;4.608;2022-08-23T04:48:33;100187.00;;;17.80
23992;BMP280;12205;50.600;4.608;2022-08-23T04:51:00;100180.13;;;17.76
23992;BMP280;12205;50.600;4.608;2022-08-23T04:53:31;100182.84;;;17.76
23992;BMP280;12205;50.600;4.608;2022-08-23T04:56:38;100192.09;;;17.75
23992;BMP280;12205;50.600;4.608;2022-08-23T04:59:09;100197.91;;;17.73
23992;BMP280;12205;50.600;4.608;2022-08-23T05:01:37;100194.44;;;17.73
23992;BMP280;12205;50.600;4.608;2022-08-23T05:04:07;100198.34;;;17.72
23992;BMP280;12205;50.600;4.608;2022-08-23T05:06:37;100199.84;;;17.73
23992;BMP280;12205;50.600;4.608;2022-08-23T05:09:05;100196.00;;;17.74
23992;BMP280;12205;50.600;4.608;2022-08-23T05:11:33;100205.25;;;17.73
23992;BMP280;12205;50.600;4.608;2022-08-23T05:14:00;100197.59;;;17.71
23992;BMP280;12205;50.600;4.608;2022-08-23T05:16:30;100205.25;;;17.73
23992;BMP280;12205;50.600;4.608;2022-08-23T05:19:02;100207.56;;;17.74
23992;BMP280;12205;50.600;4.608;2022-08-23T05:21:32;100209.88;;;17.76
23992;BMP280;12205;50.600;4.608;2022-08-23T05:24:01;100196.75;;;17.74
23992;BMP280;12205;50.600;4.608;2022-08-23T05:26:28;100202.47;;;17.80
23992;BMP280;12205;50.600;4.608;2022-08-23T05:28:55;100195.06;;;17.84
23992;BMP280;12205;50.600;4.608;2022-08-23T05:31:27;100192.72;;;17.86
23992;BMP280;12205;50.600;4.608;2022-08-23T05:33:59;100197.31;;;17.89
23992;BMP280;12205;50.600;4.608;2022-08-23T05:36:47;100191.44;;;17.94
23992;BMP280;12205;50.600;4.608;2022-08-23T05:39:15;100200.25;;;17.98
23992;BMP280;12205;50.600;4.608;2022-08-23T05:41:45;100197.09;;;18.03
23992;BMP280;12205;50.600;4.608;2022-08-23T05:44:12;100209.41;;;18.08
23992;BMP280;12205;50.600;4.608;2022-08-23T05:46:42;100193.88;;;18.12
23992;BMP280;12205;50.600;4.608;2022-08-23T05:49:25;100198.41;;;18.19
23992;BMP280;12205;50.600;4.608;2022-08-23T05:51:53;100199.13;;;18.23
23992;BMP280;12205;50.600;4.608;2022-08-23T05:54:23;100206.38;;;18.30
23992;BMP280;12205;50.600;4.608;2022-08-23T05:57:09;100201.25;;;18.35
23992;BMP280;12205;50.600;4.608;2022-08-23T05:59:36;100194.19;;;18.41
23992;BMP280;12205;50.600;4.608;2022-08-23T06:02:04;100190.22;;;18.50
23992;BMP280;12205;50.600;4.608;2022-08-23T06:04:33;100183.06;;;18.59
23992;BMP280;12205;50.600;4.608;2022-08-23T06:07:01;100187.59;;;18.66
23992;BMP280;12205;50.600;4.608;2022-08-23T06:09:28;100193.56;;;18.77
23992;BMP280;12205;50.600;4.608;2022-08-23T06:11:55;100190.72;;;18.84
23992;BMP280;12205;50.600;4.608;2022-08-23T06:14:24;100192.47;;;18.95
23992;BMP280;12205;50.600;4.608;2022-08-23T06:16:52;100193.88;;;19.03
23992;BMP280;12205;50.600;4.608;2022-08-23T06:19:22;100197.94;;;19.11
23992;BMP280;12205;50.600;4.608;2022-08-23T06:22:11;100205.09;;;19.21
23992;BMP280;12205;50.600;4.608;2022-08-23T06:24:41;100201.09;;;19.30
23992;BMP280;12205;50.600;4.608;2022-08-23T06:27:14;100193.19;;;19.35
23992;BMP280;12205;50.600;4.608;2022-08-23T06:29:41;100208.84;;;19.48
23992;BMP280;12205;50.600;4.608;2022-08-23T06:32:28;100218.75;;;19.54
23992;BMP280;12205;50.600;4.608;2022-08-23T06:35:20;100208.19;;;19.60
23992;BMP280;12205;50.600;4.608;2022-08-23T06:38:03;100214.56;;;19.70
23992;BMP280;12205;50.600;4.608;2022-08-23T06:40:50;100216.22;;;19.80
23992;BMP280;12205;50.600;4.608;2022-08-23T06:43:23;100208.81;;;19.84
23992;BMP280;12205;50.600;4.608;2022-08-23T06:46:14;100218.03;;;20.03
23992;BMP280;12205;50.600;4.608;2022-08-23T06:48:43;100222.56;;;20.10
23992;BMP280;12205;50.600;4.608;2022-08-23T06:51:15;100225.50;;;20.15
23992;BMP280;12205;50.600;4.608;2022-08-23T06:54:00;100225.19;;;20.30
23992;BMP280;12205;50.600;4.608;2022-08-23T06:56:47;100229.69;;;20.36
23992;BMP280;12205;50.600;4.608;2022-08-23T06:59:22;100229.28;;;20.51
23992;BMP280;12205;50.600;4.608;2022-08-23T07:02:07;100228.91;;;20.65
23992;BMP280;12205;50.600;4.608;2022-08-23T07:04:53;100237.56;;;20.76
23992;BMP280;12205;50.600;4.608;2022-08-23T07:07:37;100230.75;;;20.84
23992;BMP280;12205;50.600;4.608;2022-08-23T07:10:07;100238.25;;;20.93
23992;BMP280;12205;50.600;4.608;2022-08-23T07:12:38;100230.25;;;21.02
23992;BMP280;12205;50.600;4.608;2022-08-23T07:15:09;100236.91;;;21.14
23992;BMP280;12205;50.600;4.608;2022-08-23T07:17:37;100234.66;;;21.25
23992;BMP280;12205;50.600;4.608;2022-08-23T07:20:05;100242.72;;;21.29
23992;BMP280;12205;50.600;4.608;2022-08-23T07:22:35;100248.47;;;21.44
23992;BMP280;12205;50.600;4.608;2022-08-23T07:25:06;100249.03;;;21.52
23992;BMP280;12205;50.600;4.608;2022-08-23T07:27:35;100255.75;;;21.60
23992;BMP280;12205;50.600;4.608;2022-08-23T07:30:06;100256.97;;;21.72
23992;BMP280;12205;50.600;4.608;2022-08-23T07:32:36;100263.72;;;21.80
23992;BMP280;12205;50.600;4.608;2022-08-23T07:35:19;100261.00;;;21.93
23992;BMP280;12205;50.600;4.608;2022-08-23T07:37:47;100261.53;;;22.00
23992;BMP280;12205;50.600;4.608;2022-08-23T07:40:16;100259.97;;;22.12
23992;BMP280;12205;50.600;4.608;2022-08-23T07:42:45;100260.44;;;22.23
23992;BMP280;12205;50.600;4.608;2022-08-23T07:45:13;100265.16;;;22.32
23992;BMP280;12205;50.600;4.608;2022-08-23T07:47:43;100267.09;;;22.44
23992;BMP280;12205;50.600;4.608;2022-08-23T07:50:10;100266.84;;;22.52
23992;BMP280;12205;50.600;4.608;2022-08-23T07:52:37;100268.00;;;22.63
23992;BMP280;12205;50.600;4.608;2022-08-23T07:55:06;100267.66;;;22.74
23992;BMP280;12205;50.600;4.608;2022-08-23T07:57:46;100270.31;;;22.87
23992;BMP280;12205;50.600;4.608;2022-08-23T08:00:32;100276.91;;;22.99
23992;BMP280;12205;50.600;4.608;2022-08-23T08:03:16;100271.81;;;23.10
23992;BMP280;12205;50.600;4.608;2022-08-23T08:06:07;100279.72;;;23.17
23992;BMP280;12205;50.600;4.608;2022-08-23T08:08:34;100283.28;;;23.27
23992;BMP280;12205;50.600;4.608;2022-08-23T08:11:01;100284.06;;;23.37
23992;BMP280;12205;50.600;4.608;2022-08-23T08:13:30;100285.78;;;23.43
23992;BMP280;12205;50.600;4.608;2022-08-23T08:15:58;100292.78;;;23.54
23992;BMP280;12205;50.600;4.608;2022-08-23T08:18:28;100303.91;;;23.59
23992;BMP280;12205;50.600;4.608;2022-08-23T08:21:37;100297.53;;;23.71
23992;BMP280;12205;50.600;4.608;2022-08-23T08:24:18;100301.53;;;23.80
23992;BMP280;12205;50.600;4.608;2022-08-23T08:26:50;100296.25;;;23.85
23992;BMP280;12205;50.600;4.608;2022-08-23T08:29:18;100291.25;;;23.93
23992;BMP280;12205;50.600;4.608;2022-08-23T08:31:45;100301.59;;;24.07
23992;BMP280;12205;50.600;4.608;2022-08-23T08:34:14;100298.25;;;24.12
23992;BMP280;12205;50.600;4.608;2022-08-23T08:36:47;100299.66;;;24.17
23992;BMP280;12205;50.600;4.608;2022-08-23T08:39:22;100304.97;;;24.30
23992;BMP280;12205;50.600;4.608;2022-08-23T08:42:05;100304.69;;;24.46
23992;BMP280;12205;50.600;4.608;2022-08-23T08:44:43;100301.16;;;24.55
23992;BMP280;12205;50.600;4.608;2022-08-23T08:47:33;100311.97;;;24.59
23992;BMP280;12205;50.600;4.608;2022-08-23T08:50:08;100314.41;;;24.75
23992;BMP280;12205;50.600;4.608;2022-08-23T08:52:42;100318.31;;;24.83
23992;BMP280;12205;50.600;4.608;2022-08-23T08:55:24;100307.41;;;24.92
23992;BMP280;12205;50.600;4.608;2022-08-23T08:57:54;100313.41;;;25.15
23992;BMP280;12205;50.600;4.608;2022-08-23T09:00:27;100301.19;;;25.25
23992;BMP280;12205;50.600;4.608;2022-08-23T09:02:59;100321.34;;;25.46
23992;BMP280;12205;50.600;4.608;2022-08-23T09:05:32;100314.75;;;25.62
23992;BMP280;12205;50.600;4.608;2022-08-23T09:08:22;100311.91;;;25.80
23992;BMP280;12205;50.600;4.608;2022-08-23T09:11:03;100321.00;;;25.87
23992;BMP280;12205;50.600;4.608;2022-08-23T09:14:08;100322.75;;;25.99
23992;BMP280;12205;50.600;4.608;2022-08-23T09:16:50;100310.16;;;26.16
23992;BMP280;12205;50.600;4.608;2022-08-23T09:19:19;100317.94;;;26.33
23992;BMP280;12205;50.600;4.608;2022-08-23T09:21:55;100326.31;;;26.53
23992;BMP280;12205;50.600;4.608;2022-08-23T09:24:26;100322.72;;;26.62
23992;BMP280;12205;50.600;4.608;2022-08-23T09:26:59;100328.78;;;26.81
23992;BMP280;12205;50.600;4.608;2022-08-23T09:29:29;100330.00;;;26.80
23992;BMP280;12205;50.600;4.608;2022-08-23T09:32:00;100331.22;;;26.79
23992;BMP280;12205;50.600;4.608;2022-08-23T09:34:40;100330.88;;;26.86
23992;BMP280;12205;50.600;4.608;2022-08-23T09:37:17;100325.38;;;26.86
23992;BMP280;12205;50.600;4.608;2022-08-23T09:39:48;100326.59;;;26.85
23992;BMP280;12205;50.600;4.608;2022-08-23T09:42:28;100328.00;;;26.95
23992;BMP280;12205;50.600;4.608;2022-08-23T09:44:57;100338.25;;;27.10
23992;BMP280;12205;50.600;4.608;2022-08-23T09:47:34;100323.38;;;27.16
23992;BMP280;12205;50.600;4.608;2022-08-23T09:50:16;100331.06;;;27.12
23992;BMP280;12205;50.600;4.608;2022-08-23T09:52:57;100330.28;;;27.12
23992;BMP280;12205;50.600;4.608;2022-08-23T09:55:31;100323.66;;;27.18
23992;BMP280;12205;50.600;4.608;2022-08-23T09:58:03;100313.81;;;27.12
23992;BMP280;12205;50.600;4.608;2022-08-23T10:00:35;100315.16;;;27.16
23992;BMP280;12205;50.600;4.608;2022-08-23T10:03:24;100311.91;;;27.18
23992;BMP280;12205;50.600;4.608;2022-08-23T10:05:59;100307.94;;;27.19
23992;BMP280;12205;50.600;4.608;2022-08-23T10:08:34;100313.88;;;27.17
23992;BMP280;12205;50.600;4.608;2022-08-23T10:11:12;100314.16;;;27.34
23992;BMP280;12205;50.600;4.608;2022-08-23T10:13:43;100302.84;;;27.47
23992;BMP280;12205;50.600;4.608;2022-08-23T10:16:20;100322.72;;;27.77
23992;BMP280;12205;50.600;4.608;2022-08-23T10:19:08;100322.44;;;27.75
23992;BMP280;12205;50.600;4.608;2022-08-23T10:21:43;100314.88;;;27.90
23992;BMP280;12205;50.600;4.608;2022-08-23T10:24:19;100310.81;;;28.06
23992;BMP280;12205;50.600;4.608;2022-08-23T10:27:06;100305.13;;;28.10
23992;BMP280;12205;50.600;4.608;2022-08-23T10:29:57;100295.94;;;27.92
23992;BMP280;12205;50.600;4.608;2022-08-23T10:32:44;100307.94;;;28.16
23992;BMP280;12205;50.600;4.608;2022-08-23T10:35:30;100323.53;;;28.24
23992;BMP280;12205;50.600;4.608;2022-08-23T10:38:20;100320.94;;;28.15
23992;BMP280;12205;50.600;4.608;2022-08-23T10:41:06;100312.25;;;28.22
23992;BMP280;12205;50.600;4.608;2022-08-23T10:43:44;100319.28;;;28.23
23992;BMP280;12205;50.600;4.608;2022-08-23T10:46:19;100311.97;;;28.20
23992;BMP280;12205;50.600;4.608;2022-08-23T10:48:51;100310.28;;;28.28
23992;BMP280;12205;50.600;4.608;2022-08-23T10:51:27;100316.56;;;28.29
23992;BMP280;12205;50.600;4.608;2022-08-23T10:54:01;100312.81;;;28.26
23992;BMP280;12205;50.600;4.608;2022-08-23T10:56:31;100313.53;;;28.27
23992;BMP280;12205;50.600;4.608;2022-08-23T10:59:09;100310.84;;;28.32
23992;BMP280;12205;50.600;4.608;2022-08-23T11:01:51;100318.03;;;28.24
23992;BMP280;12205;50.600;4.608;2022-08-23T11:04:28;100306.44;;;28.14
23992;BMP280;12205;50.600;4.608;2022-08-23T11:07:18;100312.34;;;28.07
23992;BMP280;12205;50.600;4.608;2022-08-23T11:09:52;100313.81;;;28.03
23992;BMP280;12205;50.600;4.608;2022-08-23T11:12:29;100307.75;;;27.99
23992;BMP280;12205;50.600;4.608;2022-08-23T11:15:17;100308.56;;;28.05
23992;BMP280;12205;50.600;4.608;2022-08-23T11:17:58;100305.44;;;28.18
23992;BMP280;12205;50.600;4.608;2022-08-23T11:21:02;100292.78;;;28.52
23992;BMP280;12205;50.600;4.608;2022-08-23T11:23:48;100299.19;;;28.69
23992;BMP280;12205;50.600;4.608;2022-08-23T11:27:05;100302.78;;;28.81
23992;BMP280;12205;50.600;4.608;2022-08-23T11:29:38;100301.69;;;28.99
23992;BMP280;12205;50.600;4.608;2022-08-23T11:32:36;100301.75;;;28.78
23992;BMP280;12205;50.600;4.608;2022-08-23T11:35:29;100293.78;;;28.81
23992;BMP280;12205;50.600;4.608;2022-08-23T11:38:03;100292.34;;;28.91
23992;BMP280;12205;50.600;4.608;2022-08-23T11:41:21;100294.38;;;28.96
23992;BMP280;12205;50.600;4.608;2022-08-23T11:44:34;100292.38;;;28.96
23992;BMP280;12205;50.600;4.608;2022-08-23T11:47:05;100286.59;;;28.94
23992;BMP280;12205;50.600;4.608;2022-08-23T11:50:16;100290.72;;;29.10
23992;BMP280;12205;50.600;4.608;2022-08-23T11:53:24;100286.38;;;29.41
23992;BMP280;12205;50.600;4.608;2022-08-23T11:56:30;100284.06;;;29.88
23992;BMP280;12205;50.600;4.608;2022-08-23T11:59:29;100286.84;;;30.11
23992;BMP280;12205;50.600;4.608;2022-08-23T12:02:34;100288.38;;;30.45
23992;BMP280;12205;50.600;4.608;2022-08-23T12:05:25;100280.81;;;30.74
23992;BMP280;12205;50.600;4.608;2022-08-23T12:08:48;100287.13;;;30.80
23992;BMP280;12205;50.600;4.608;2022-08-23T12:12:23;100287.81;;;30.97
23992;BMP280;12205;50.600;4.608;2022-08-23T12:14:56;100289.13;;;31.55
23992;BMP280;12205;50.600;4.608;2022-08-23T12:18:10;100287.94;;;31.86
23992;BMP280;12205;50.600;4.608;2022-08-23T12:20:39;100288.47;;;32.20
23992;BMP280;12205;50.600;4.608;2022-08-23T12:23:18;100287.13;;;32.82
23992;BMP280;12205;50.600;4.608;2022-08-23T12:26:04;100285.69;;;33.00
23992;BMP280;12205;50.600;4.608;2022-08-23T12:28:41;100283.97;;;33.15
23992;BMP280;12205;50.600;4.608;2022-08-23T12:31:20;100284.38;;;32.82
23992;BMP280;12205;50.600;4.608;2022-08-23T12:34:16;100284.00;;;32.42
23992;BMP280;12205;50.600;4.608;2022-08-23T12:37:00;100284.19;;;32.19
23992;BMP280;12205;50.600;4.608;2022-08-23T12:39:33;100281.03;;;32.04
23992;BMP280;12205;50.600;4.608;2022-08-23T12:42:09;100291.19;;;32.26
23992;BMP280;12205;50.600;4.608;2022-08-23T12:45:02;100292.63;;;32.33
23992;BMP280;12205;50.600;4.608;2022-08-23T12:47:30;100280.31;;;33.26
23992;BMP280;12205;50.600;4.608;2022-08-23T12:50:01;100282.63;;;33.79
23992;BMP280;12205;50.600;4.608;2022-08-23T12:52:33;100287.06;;;34.01
23992;BMP280;12205;50.600;4.608;2022-08-23T12:55:01;100280.41;;;34.63
23992;BMP280;12205;50.600;4.608;2022-08-23T12:57:34;100281.44;;;34.99
23992;BMP280;12205;50.600;4.608;2022-08-23T13:00:20;100286.25;;;35.67
23992;BMP280;12205;50.600;4.608;2022-08-23T13:02:55;100288.97;;;34.91
23992;BMP280;12205;50.600;4.608;2022-08-23T13:05:36;100279.44;;;34.33
23992;BMP280;12205;50.600;4.608;2022-08-23T13:08:10;100280.06;;;34.26
23992;BMP280;12205;50.600;4.608;2022-08-23T13:10:41;100285.19;;;34.62
23992;BMP280;12205;50.600;4.608;2022-08-23T13:13:13;100280.53;;;35.31
23992;BMP280;12205;50.600;4.608;2022-08-23T13:15:51;100289.97;;;35.15
23992;BMP280;12205;50.600;4.608;2022-08-23T13:18:41;100287.56;;;35.32
23992;BMP280;12205;50.600;4.608;2022-08-23T13:21:28;100294.53;;;35.60
23992;BMP280;12205;50.600;4.608;2022-08-23T13:23:59;100299.66;;;36.18
23992;BMP280;12205;50.600;4.608;2022-08-23T13:26:39;100297.94;;;36.08
23992;BMP280;12205;50.600;4.608;2022-08-23T13:29:11;100291.81;;;35.46
23992;BMP280;12205;50.600;4.608;2022-08-23T13:31:57;100293.84;;;34.98
23992;BMP280;12205;50.600;4.608;2022-08-23T13:34:37;100293.78;;;35.25
23992;BMP280;12205;50.600;4.608;2022-08-23T13:37:19;100293.81;;;35.80
23992;BMP280;12205;50.600;4.608;2022-08-23T13:39:50;100290.03;;;35.99
23992;BMP280;12205;50.600;4.608;2022-08-23T13:42:34;100296.81;;;36.68
23992;BMP280;12205;50.600;4.608;2022-08-23T13:45:12;100295.50;;;37.28
23992;BMP280;12205;50.600;4.608;2022-08-23T13:47:49;100294.34;;;37.08
23992;BMP280;12205;50.600;4.608;2022-08-23T13:50:22;100308.25;;;36.57
23992;BMP280;12205;50.600;4.608;2022-08-23T13:52:49;100290.00;;;35.49
23992;BMP280;12205;50.600;4.608;2022-08-23T13:55:16;100299.66;;;34.74
23992;BMP280;12205;50.600;4.608;2022-08-23T13:57:43;100283.84;;;35.30
23992;BMP280;12205;50.600;4.608;2022-08-23T14:00:12;100296.94;;;35.42
23992;BMP280;12205;50.600;4.608;2022-08-23T14:02:39;100284.16;;;35.26
23992;BMP280;12205;50.600;4.608;2022-08-23T14:05:08;100281.09;;;35.51
23992;BMP280;12205;50.600;4.608;2022-08-23T14:07:35;100292.25;;;34.90
23992;BMP280;12205;50.600;4.608;2022-08-23T14:10:03;100292.19;;;34.55
23992;BMP280;12205;50.600;4.608;2022-08-23T14:12:32;100291.69;;;35.05
23992;BMP280;12205;50.600;4.608;2022-08-23T14:15:03;100280.53;;;36.15
23992;BMP280;12205;50.600;4.608;2022-08-23T14:17:39;100283.88;;;36.42
23992;BMP280;12205;50.600;4.608;2022-08-23T14:20:10;100276.78;;;36.77
23992;BMP280;12205;50.600;4.608;2022-08-23T14:22:38;100278.41;;;37.32
23992;BMP280;12205;50.600;4.608;2022-08-23T14:25:08;100263.13;;;38.17
23992;BMP280;12205;50.600;4.608;2022-08-23T14:27:38;100267.13;;;39.12
23992;BMP280;12205;50.600;4.608;2022-08-23T14:30:08;100266.72;;;38.58
23992;BMP280;12205;50.600;4.608;2022-08-23T14:32:36;100275.81;;;37.34
23992;BMP280;12205;50.600;4.608;2022-08-23T14:35:08;100278.31;;;36.94
23992;BMP280;12205;50.600;4.608;2022-08-23T14:37:35;100271.69;;;37.20
23992;BMP280;12205;50.600;4.608;2022-08-23T14:40:03;100272.09;;;37.31
23992;BMP280;12205;50.600;4.608;2022-08-23T14:42:31;100267.84;;;37.76